createdAt,value
2022-12-19T00:00:31.600Z,102255.84
2022-12-19T00:02:59.698Z,102271.19
2022-12-19T00:05:27.720Z,102264.97
2022-12-19T00:07:55.578Z,102266.78
2022-12-19T00:10:24.970Z,102271.19
2022-12-19T00:12:52.953Z,102278.00
2022-12-19T00:15:22.253Z,102270.41
2022-12-19T00:17:50.137Z,102272.22
2022-12-19T00:20:18.605Z,102251.78
2022-12-19T00:22:46.653Z,102277.00
2022-12-19T00:25:14.630Z,102234.72
2022-12-19T00:27:44.022Z,102270.94
2022-12-19T00:30:13.336Z,102269.28
2022-12-19T00:32:43.300Z,102250.41
2022-12-19T00:35:11.533Z,102266.34
2022-12-19T00:37:41.443Z,102267.13
2022-12-19T00:40:16.487Z,102266.22
2022-12-19T00:42:48.688Z,102274.56
2022-12-19T00:45:19.845Z,102274.31
2022-12-19T00:47:49.024Z,102277.78
2022-12-19T00:50:17.042Z,102247.25
2022-12-19T00:52:45.264Z,102198.16
2022-12-19T00:55:19.022Z,102151.03
2022-12-19T00:57:48.173Z,102229.56
2022-12-19T01:00:18.075Z,102268.38
2022-12-19T01:02:46.711Z,102255.72
2022-12-19T01:05:16.400Z,102270.94
2022-12-19T01:07:44.202Z,102270.03
2022-12-19T01:10:12.089Z,102281.25
2022-12-19T01:12:48.934Z,102266.69
2022-12-19T01:15:18.835Z,102275.63
2022-12-19T01:17:46.742Z,102280.31
2022-12-19T01:20:19.137Z,102277.09
2022-12-19T01:22:57.338Z,102281.34
2022-12-19T01:25:27.809Z,102252.00
2022-12-19T01:27:55.811Z,102271.81
2022-12-19T01:30:23.792Z,102250.06
2022-12-19T01:32:52.649Z,102254.22
2022-12-19T01:35:22.426Z,102258.34
2022-12-19T01:37:51.004Z,102255.00
2022-12-19T01:40:19.660Z,102251.50
2022-12-19T01:42:48.110Z,102252.28
2022-12-19T01:45:34.536Z,102252.00
2022-12-19T01:48:16.900Z,102252.00
2022-12-19T01:51:01.820Z,102251.59
2022-12-19T01:53:34.613Z,102255.72
2022-12-19T01:56:09.659Z,102258.16
2022-12-19T01:58:41.052Z,102262.41
2022-12-19T02:01:09.132Z,102257.72
2022-12-19T02:03:39.133Z,102267.75
2022-12-19T02:06:10.502Z,102268.38
2022-12-19T02:08:39.213Z,102186.00
2022-12-19T02:11:07.127Z,102257.63
2022-12-19T02:13:35.470Z,102265.97
2022-12-19T02:16:13.177Z,102265.06
2022-12-19T02:18:49.296Z,102262.50
2022-12-19T02:21:36.644Z,102265.06
2022-12-19T02:24:51.876Z,102212.47
2022-12-19T02:27:38.472Z,102257.47
2022-12-19T02:30:11.767Z,102218.19
2022-12-19T02:32:49.342Z,102257.63
2022-12-19T02:35:26.966Z,102258.25
2022-12-19T02:38:06.275Z,102259.00
2022-12-19T02:40:43.501Z,102221.25
2022-12-19T02:43:13.780Z,102259.91
2022-12-19T02:45:43.786Z,102222.44
2022-12-19T02:48:18.949Z,102254.47
2022-12-19T02:50:50.175Z,102231.31
2022-12-19T02:53:23.480Z,102210.03
2022-12-19T02:56:05.650Z,102260.81
2022-12-19T02:58:51.040Z,102191.56
2022-12-19T03:01:32.582Z,102259.59
2022-12-19T03:04:11.350Z,102167.66
2022-12-19T03:06:49.070Z,102209.66
2022-12-19T03:09:24.386Z,102256.94
2022-12-19T03:12:03.491Z,102262.25
2022-12-19T03:14:32.855Z,102255.28
2022-12-19T03:17:05.826Z,102256.19
2022-12-19T03:19:36.049Z,102260.28
2022-12-19T03:22:04.075Z,102271.19
2022-12-19T03:24:32.276Z,102267.22
2022-12-19T03:27:04.698Z,102182.41
2022-12-19T03:29:35.669Z,102246.16
2022-12-19T03:32:07.693Z,102253.31
2022-12-19T03:34:45.032Z,102247.69
2022-12-19T03:37:18.320Z,102242.94
2022-12-19T03:39:49.587Z,102253.69
2022-12-19T03:42:37.470Z,102249.56
2022-12-19T03:45:07.963Z,102245.59
2022-12-19T03:47:39.213Z,102245.88
2022-12-19T03:50:10.527Z,102240.25
2022-12-19T03:52:46.811Z,102240.50
2022-12-19T03:55:19.411Z,102238.34
2022-12-19T03:57:53.564Z,102232.69
2022-12-19T04:00:22.291Z,102238.13
2022-12-19T04:02:52.339Z,102231.44
2022-12-19T04:05:24.507Z,102228.22
2022-12-19T04:07:57.015Z,102223.34
2022-12-19T04:10:27.696Z,102227.09
2022-12-19T04:12:59.275Z,102225.72
2022-12-19T04:15:37.101Z,102214.97
2022-12-19T04:18:08.193Z,102218.50
2022-12-19T04:20:40.636Z,102218.03
2022-12-19T04:23:14.797Z,102214.81
2022-12-19T04:25:46.579Z,102203.72
2022-12-19T04:28:19.596Z,102182.66
2022-12-19T04:30:49.780Z,102180.19
2022-12-19T04:33:17.762Z,102181.38
2022-12-19T04:35:47.145Z,102198.22
2022-12-19T04:38:15.293Z,102192.44
2022-12-19T04:40:43.154Z,102173.81
2022-12-19T04:43:11.009Z,102163.22
2022-12-19T04:45:39.075Z,102190.25
2022-12-19T04:48:08.086Z,102193.88
2022-12-19T04:50:37.023Z,102193.88
2022-12-19T04:53:07.645Z,102186.25
2022-12-19T04:55:35.552Z,102183.81
2022-12-19T04:58:05.341Z,102188.97
2022-12-19T05:00:34.020Z,102185.06
2022-12-19T05:03:02.017Z,102185.88
2022-12-19T05:05:30.082Z,102196.47
2022-12-19T05:07:58.237Z,102199.19
2022-12-19T05:10:27.463Z,102187.19
2022-12-19T05:12:55.336Z,102173.47
2022-12-19T05:15:23.708Z,102183.06
2022-12-19T05:17:51.560Z,102158.88
2022-12-19T05:20:19.614Z,102179.72
2022-12-19T05:22:47.772Z,102190.94
2022-12-19T05:25:15.707Z,102185.91
2022-12-19T05:27:44.884Z,102186.03
2022-12-19T05:30:13.692Z,102159.28
2022-12-19T05:32:41.547Z,102130.44
2022-12-19T05:35:09.406Z,102173.53
2022-12-19T05:37:37.439Z,102180.50
2022-12-19T05:40:05.861Z,102150.25
2022-12-19T05:42:33.696Z,102086.75
2022-12-19T05:45:03.273Z,102176.38
2022-12-19T05:47:31.110Z,102179.88
2022-12-19T05:49:59.343Z,102187.75
2022-12-19T05:52:27.615Z,102181.81
2022-12-19T05:54:55.449Z,102100.75
2022-12-19T05:57:23.320Z,102179.34
2022-12-19T05:59:51.376Z,102167.34
2022-12-19T06:02:21.597Z,102163.84
2022-12-19T06:04:49.500Z,102171.72
2022-12-19T06:07:20.910Z,102169.28
2022-12-19T06:09:49.226Z,102169.41
2022-12-19T06:12:17.130Z,102172.91
2022-12-19T06:14:45.172Z,102172.13
2022-12-19T06:17:12.999Z,102151.31
2022-12-19T06:19:42.195Z,102170.44
2022-12-19T06:22:10.171Z,102128.31
2022-12-19T06:24:38.022Z,102139.03
2022-12-19T06:27:06.031Z,102167.88
2022-12-19T06:29:34.032Z,102165.28
2022-12-19T06:32:01.947Z,102160.25
2022-12-19T06:35:02.232Z,102149.00
2022-12-19T06:37:19.248Z,102133.34
2022-12-19T06:39:47.151Z,102152.22
2022-12-19T06:42:25.947Z,102157.25
2022-12-19T06:44:56.175Z,102146.03
2022-12-19T06:47:25.170Z,102144.22
2022-12-19T06:49:53.180Z,102141.50
2022-12-19T06:52:22.465Z,102144.09
2022-12-19T06:54:50.268Z,102141.50
2022-12-19T06:57:18.210Z,102144.09
2022-12-19T06:59:46.164Z,102146.66
2022-12-19T07:02:28.504Z,102105.16
2022-12-19T07:05:02.240Z,102142.13
2022-12-19T07:07:31.891Z,102145.63
2022-12-19T07:10:00.390Z,102132.72
2022-12-19T07:12:28.381Z,102134.53
2022-12-19T07:14:56.387Z,102142.28
2022-12-19T07:17:25.486Z,102060.09
2022-12-19T07:19:55.695Z,102049.34
2022-12-19T07:22:24.488Z,102121.72
2022-12-19T07:24:55.391Z,102115.66
2022-12-19T07:27:23.739Z,102111.41
2022-12-19T07:29:51.760Z,101913.09
2022-12-19T07:32:19.752Z,102105.31
2022-12-19T07:34:47.605Z,102107.91
2022-12-19T07:37:15.553Z,102100.94
2022-12-19T07:39:43.518Z,102087.88
2022-12-19T07:42:12.751Z,102093.19
2022-12-19T07:44:40.734Z,102095.75
2022-12-19T07:47:08.683Z,102079.34
2022-12-19T07:49:36.522Z,102097.44
2022-12-19T07:52:05.467Z,102103.50
2022-12-19T07:54:33.549Z,102102.47
2022-12-19T07:57:02.227Z,102092.00
2022-12-19T07:59:38.688Z,102090.34
2022-12-19T08:02:08.090Z,102088.53
2022-12-19T08:04:36.192Z,102088.41
2022-12-19T08:07:04.055Z,102066.31
2022-12-19T08:09:34.662Z,102080.66
2022-12-19T08:12:02.572Z,102082.31
2022-12-19T08:14:31.752Z,102077.16
2022-12-19T08:19:47.671Z,102074.44
2022-12-19T08:22:15.723Z,101972.13
2022-12-19T08:24:43.845Z,102067.34
2022-12-19T08:27:12.010Z,102063.84
2022-12-19T08:29:41.296Z,102062.16
2022-12-19T08:32:09.276Z,102037.25
2022-12-19T08:34:37.261Z,102025.09
2022-12-19T08:37:05.191Z,102053.38
2022-12-19T08:39:33.023Z,102046.53
2022-12-19T08:42:01.215Z,102051.56
2022-12-19T08:44:29.079Z,102012.56
2022-12-19T08:46:58.382Z,102026.50
2022-12-19T08:49:26.441Z,102025.47
2022-12-19T08:51:54.317Z,101964.78
2022-12-19T08:54:22.273Z,102014.13
2022-12-19T08:56:50.174Z,101951.09
2022-12-19T08:59:25.643Z,101980.53
2022-12-19T09:02:02.224Z,102008.69
2022-12-19T09:05:57.669Z,102009.47
2022-12-19T09:07:18.932Z,102000.69
2022-12-19T09:09:46.931Z,101992.81
2022-12-19T09:12:16.291Z,101992.69
2022-12-19T09:14:45.273Z,101991.78
2022-12-19T09:17:14.625Z,101984.03
2022-12-19T09:19:47.512Z,101992.69
2022-12-19T09:22:16.505Z,101984.69
2022-12-19T09:24:44.561Z,101980.28
2022-12-19T09:27:14.257Z,101973.31
2022-12-19T09:29:46.315Z,101960.28
2022-12-19T09:32:15.479Z,101974.59
2022-12-19T09:34:43.343Z,101970.22
2022-12-19T09:37:16.873Z,101960.66
2022-12-19T09:39:46.727Z,101941.69
2022-12-19T09:42:47.472Z,101934.72
2022-12-19T09:45:46.269Z,101945.81
2022-12-19T09:48:24.535Z,101921.41
2022-12-19T09:51:09.512Z,101950.97
2022-12-19T09:53:46.112Z,101934.44
2022-12-19T09:56:23.689Z,101910.44
2022-12-19T09:58:59.583Z,101910.06
2022-12-19T10:01:33.577Z,101912.91
2022-12-19T10:04:10.732Z,101872.38
2022-12-19T10:07:16.303Z,101906.19
2022-12-19T10:11:54.793Z,101891.47
2022-12-19T10:12:45.781Z,101894.03
2022-12-19T10:15:24.653Z,101869.13
2022-12-19T10:18:06.709Z,101893.53
2022-12-19T10:20:39.788Z,101882.28
2022-12-19T10:23:19.467Z,101870.28
2022-12-19T10:25:53.767Z,101872.88
2022-12-19T10:28:37.657Z,101867.72
2022-12-19T10:31:21.034Z,101859.19
2022-12-19T10:33:57.075Z,101864.47
2022-12-19T10:36:56.025Z,101861.88
2022-12-19T10:39:21.911Z,101860.22
2022-12-19T10:41:55.060Z,101866.53
2022-12-19T10:44:24.282Z,101859.69
2022-12-19T10:46:54.404Z,101861.50
2022-12-19T10:49:24.146Z,101830.03
2022-12-19T10:52:00.451Z,101807.47
2022-12-19T10:54:39.573Z,101852.47
2022-12-19T10:57:20.363Z,101844.06
2022-12-19T10:59:56.943Z,101752.38
2022-12-19T11:02:35.498Z,101858.47
2022-12-19T11:05:04.927Z,101841.56
2022-12-19T11:07:34.452Z,101834.19
2022-12-19T11:10:24.701Z,101829.13
2022-12-19T11:16:46.577Z,101809.38
2022-12-19T11:19:46.255Z,101789.97
2022-12-19T11:29:27.014Z,101785.19
2022-12-19T11:29:30.351Z,101779.22
2022-12-19T11:29:42.537Z,101776.88
2022-12-19T11:30:41.740Z,101732.03
2022-12-19T11:33:20.124Z,101768.59
2022-12-19T11:35:50.298Z,101758.25
2022-12-19T11:38:22.286Z,101760.84
2022-12-19T11:40:54.310Z,101712.63
2022-12-19T11:43:45.693Z,101756.94
2022-12-19T11:46:24.603Z,101752.78
2022-12-19T11:48:56.851Z,101723.81
2022-12-19T11:51:32.297Z,101747.09
2022-12-19T11:54:08.846Z,101698.00
2022-12-19T11:56:38.335Z,101697.56
2022-12-19T11:59:16.675Z,101723.28
2022-12-19T12:02:13.011Z,101719.91
2022-12-19T12:05:22.141Z,101716.66
2022-12-19T12:10:00.192Z,101669.38
2022-12-19T12:15:45.629Z,101655.88
2022-12-19T12:25:29.476Z,101672.69
2022-12-19T12:28:53.226Z,101681.25
2022-12-19T12:31:31.133Z,101620.25
2022-12-19T12:31:49.211Z,101666.09
2022-12-19T12:31:58.820Z,101635.25
2022-12-19T12:32:00.362Z,101663.63
2022-12-19T12:35:17.433Z,101660.38
2022-12-19T12:36:56.033Z,101553.94
2022-12-19T12:41:16.277Z,101627.47
2022-12-19T12:44:08.426Z,101597.66
2022-12-19T12:46:40.994Z,101622.22
2022-12-19T12:49:25.459Z,101618.28
2022-12-19T12:51:53.588Z,101617.72
2022-12-19T12:54:22.709Z,101573.41
2022-12-19T12:56:51.205Z,101616.72
2022-12-19T12:59:25.753Z,101587.59
2022-12-19T13:01:56.745Z,101590.75
2022-12-19T13:04:36.029Z,101464.22
2022-12-19T13:07:28.136Z,101586.25
2022-12-19T13:10:18.013Z,101594.69
2022-12-19T13:13:01.141Z,101593.00
2022-12-19T13:15:48.343Z,101589.84
2022-12-19T13:18:32.969Z,101576.09
2022-12-19T13:21:02.862Z,101562.38
2022-12-19T13:23:49.261Z,101553.28
2022-12-19T13:26:46.932Z,101550.13
2022-12-19T13:29:35.735Z,101548.19
2022-12-19T13:32:14.371Z,101538.75
2022-12-19T13:35:06.200Z,101518.41
2022-12-19T13:39:59.626Z,101476.13
2022-12-19T13:40:35.174Z,101520.75
2022-12-19T13:43:30.937Z,101525.00
2022-12-19T13:46:01.686Z,101504.56
2022-12-19T13:48:35.342Z,101520.75
2022-12-19T13:51:06.916Z,101505.22
2022-12-19T13:53:34.791Z,101507.00
2022-12-19T13:56:04.937Z,101497.66
2022-12-19T13:58:37.852Z,101501.03
2022-12-19T14:01:21.578Z,101489.91
2022-12-19T14:03:54.533Z,101444.84
2022-12-19T14:06:26.089Z,101485.50
2022-12-19T14:11:06.113Z,101478.66
2022-12-19T14:12:26.722Z,101484.72
2022-12-19T14:15:13.038Z,101481.34
2022-12-19T14:17:41.963Z,101488.44
2022-12-19T14:22:02.097Z,101478.97
2022-12-19T14:23:07.937Z,101458.19
2022-12-19T14:28:21.685Z,101473.59
2022-12-19T14:28:39.101Z,101463.22
2022-12-19T14:31:13.694Z,101455.47
2022-12-19T14:34:04.187Z,101460.84
2022-12-19T14:36:35.838Z,101449.50
2022-12-19T14:39:24.765Z,101440.25
2022-12-19T14:42:11.550Z,101431.69
2022-12-19T14:53:34.398Z,101431.81
2022-12-19T14:54:13.812Z,101426.63
2022-12-19T14:54:20.958Z,101427.53
2022-12-19T14:54:28.466Z,101423.47
2022-12-19T14:59:02.914Z,101414.22
2022-12-19T15:01:35.176Z,101407.44
2022-12-19T15:04:53.256Z,101404.03
2022-12-19T15:07:09.584Z,101412.81
2022-12-19T15:11:07.400Z,101406.03
2022-12-19T15:14:48.903Z,101405.16
2022-12-19T15:16:01.514Z,101399.97
2022-12-19T15:18:39.584Z,101396.47
2022-12-19T15:21:10.956Z,101370.38
2022-12-19T15:23:39.135Z,101399.16
2022-12-19T15:26:14.173Z,101393.19
2022-12-19T15:28:43.300Z,101380.94
2022-12-19T15:31:26.509Z,101321.25
2022-12-19T15:36:42.535Z,101358.53
2022-12-19T15:39:10.475Z,101345.81
2022-12-19T15:41:39.651Z,101328.47
2022-12-19T15:44:14.398Z,101322.50
2022-12-19T15:46:48.355Z,101350.78
2022-12-19T15:49:18.286Z,101333.44
2022-12-19T15:51:46.603Z,101312.94
2022-12-19T15:54:47.071Z,101300.19
2022-12-19T15:57:04.793Z,101329.06
2022-12-19T15:59:38.683Z,101322.09
2022-12-19T16:02:17.701Z,101263.22
2022-12-19T16:04:47.412Z,101298.59
2022-12-19T16:07:17.631Z,101288.03
2022-12-19T16:09:45.600Z,101303.97
2022-12-19T16:12:18.130Z,101302.19
2022-12-19T16:14:48.587Z,101284.25
2022-12-19T16:17:22.321Z,101235.91
2022-12-19T16:19:51.733Z,101208.50
2022-12-19T16:22:22.424Z,101224.44
2022-12-19T16:24:51.461Z,101221.59
2022-12-19T16:27:24.946Z,101270.59
2022-12-19T16:29:54.088Z,101269.72
2022-12-19T16:32:24.268Z,101225.88
2022-12-19T16:34:53.265Z,101256.34
2022-12-19T16:37:22.779Z,101114.91
2022-12-19T16:39:52.480Z,101236.34
2022-12-19T16:42:21.859Z,101221.91
2022-12-19T16:44:49.836Z,101236.16
2022-12-19T16:47:19.098Z,101234.34
2022-12-19T16:49:47.110Z,101206.75
2022-12-19T16:52:15.384Z,101237.03
2022-12-19T16:54:43.278Z,101238.72
2022-12-19T16:57:20.575Z,101235.25
2022-12-19T16:59:51.269Z,101176.78
2022-12-19T17:02:43.693Z,101206.06
2022-12-19T17:05:23.926Z,101059.97
2022-12-19T17:07:52.441Z,101213.75
2022-12-19T17:10:26.396Z,101211.16
2022-12-19T17:12:55.593Z,101138.88
2022-12-19T17:15:29.414Z,101199.13
2022-12-19T17:17:59.326Z,101193.84
2022-12-19T17:20:29.570Z,101145.13
2022-12-19T17:22:57.403Z,101132.22
2022-12-19T17:25:28.945Z,101181.72
2022-12-19T17:27:57.074Z,101181.81
2022-12-19T17:30:26.255Z,101180.13
2022-12-19T17:32:56.772Z,101172.25
2022-12-19T17:35:28.936Z,101160.00
2022-12-19T17:37:58.448Z,101167.78
2022-12-19T17:40:28.432Z,101142.88
2022-12-19T17:42:57.541Z,101159.22
2022-12-19T17:45:30.062Z,101153.16
2022-12-19T17:48:02.984Z,101150.56
2022-12-19T17:50:34.994Z,101130.84
2022-12-19T17:53:02.840Z,101142.81
2022-12-19T17:55:32.011Z,101153.16
2022-12-19T17:58:00.198Z,101148.78
2022-12-19T18:00:31.237Z,101136.72
2022-12-19T18:03:02.979Z,101091.72
2022-12-19T18:05:35.959Z,101133.34
2022-12-19T18:08:04.744Z,101133.25
2022-12-19T18:10:33.491Z,101098.81
2022-12-19T18:13:01.352Z,101124.59
2022-12-19T18:15:30.838Z,101117.63
2022-12-19T18:17:58.820Z,101126.28
2022-12-19T18:20:31.901Z,101043.38
2022-12-19T18:23:01.464Z,101106.38
2022-12-19T18:25:31.106Z,101047.47
2022-12-19T18:27:59.404Z,101102.91
2022-12-19T18:30:27.499Z,101101.22
2022-12-19T18:32:58.907Z,101089.97
2022-12-19T18:35:32.688Z,101094.25
2022-12-19T18:38:02.703Z,101006.78
2022-12-19T18:40:31.904Z,101081.22
2022-12-19T18:43:00.331Z,101074.34
2022-12-19T18:45:34.647Z,101037.22
2022-12-19T18:48:08.053Z,101047.97
2022-12-19T18:50:36.115Z,101050.97
2022-12-19T18:53:04.156Z,101044.91
2022-12-19T18:55:32.720Z,101055.13
2022-12-19T18:58:00.580Z,101059.63
2022-12-19T19:00:30.057Z,101056.03
2022-12-19T19:03:00.296Z,101048.38
2022-12-19T19:05:31.716Z,101048.38
2022-12-19T19:08:06.733Z,101042.31
2022-12-19T19:10:34.990Z,101043.91
2022-12-19T19:13:09.804Z,101030.66
2022-12-19T19:15:41.693Z,101022.50
2022-12-19T19:18:09.671Z,101028.38
2022-12-19T19:20:41.474Z,101028.38
2022-12-19T19:23:12.268Z,101015.34
2022-12-19T19:25:40.210Z,100991.38
2022-12-19T19:28:08.453Z,100976.88
2022-12-19T19:30:38.505Z,101015.34
2022-12-19T19:33:12.890Z,101009.19
2022-12-19T19:35:45.202Z,101010.06
2022-12-19T19:38:14.356Z,101013.56
2022-12-19T19:40:43.438Z,101006.59
2022-12-19T19:43:11.514Z,100999.63
2022-12-19T19:45:43.168Z,101008.28
2022-12-19T19:48:11.771Z,101002.22
2022-12-19T19:50:39.925Z,101005.78
2022-12-19T19:53:11.223Z,100980.25
2022-12-19T19:55:39.151Z,100992.97
2022-12-19T19:58:07.432Z,100990.38
2022-12-19T20:00:35.278Z,100980.22
2022-12-19T20:03:07.210Z,100980.22
2022-12-19T20:05:37.587Z,100975.84
2022-12-19T20:08:05.945Z,100970.69
2022-12-19T20:10:35.131Z,100945.91
2022-12-19T20:13:03.172Z,100966.50
2022-12-19T20:15:31.363Z,100957.94
2022-12-19T20:17:59.751Z,100958.81
2022-12-19T20:20:27.683Z,100947.69
2022-12-19T20:22:55.908Z,100936.16
2022-12-19T20:25:23.740Z,100949.56
2022-12-19T20:27:53.065Z,100946.19
2022-12-19T20:30:21.109Z,100941.00
2022-12-19T20:32:48.945Z,100921.63
2022-12-19T20:35:17.385Z,100936.72
2022-12-19T20:37:45.488Z,100938.53
2022-12-19T20:40:16.503Z,100930.84
2022-12-19T20:42:44.827Z,100932.75
2022-12-19T20:45:14.250Z,100925.88
2022-12-19T20:47:42.108Z,100927.47
2022-12-19T20:50:12.911Z,100919.81
2022-12-19T20:52:40.891Z,100927.66
2022-12-19T20:55:10.778Z,100925.16
2022-12-19T20:57:38.737Z,100918.19
2022-12-19T21:00:10.261Z,100904.28
2022-12-19T21:03:16.907Z,100916.78
2022-12-19T21:05:27.970Z,100894.91
2022-12-19T21:07:55.855Z,100859.44
2022-12-19T21:10:23.653Z,100898.88
2022-12-19T21:12:51.650Z,100898.16
2022-12-19T21:15:19.581Z,100893.09
2022-12-19T21:17:48.806Z,100895.66
2022-12-19T21:20:16.858Z,100899.25
2022-12-19T21:22:44.763Z,100838.66
2022-12-19T21:25:12.558Z,100896.75
2022-12-19T21:27:40.479Z,100871.81
2022-12-19T21:30:09.859Z,100892.56
2022-12-19T21:32:37.707Z,100872.00
2022-12-19T21:35:07.472Z,100889.16
2022-12-19T21:37:39.893Z,100887.47
2022-12-19T21:40:12.043Z,100881.50
2022-12-19T21:42:40.072Z,100884.88
2022-12-19T21:45:08.975Z,100883.19
2022-12-19T21:47:39.352Z,100883.28
2022-12-19T21:50:12.443Z,100879.72
2022-12-19T21:52:41.114Z,100713.56
2022-12-19T21:55:10.566Z,100868.47
2022-12-19T21:57:40.097Z,100860.00
2022-12-19T22:00:09.748Z,100866.16
2022-12-19T22:02:37.861Z,100859.19
2022-12-19T22:05:07.157Z,100812.94
2022-12-19T22:07:36.493Z,100837.22
2022-12-19T22:10:04.589Z,100851.44
2022-12-19T22:12:32.491Z,100844.56
2022-12-19T22:15:00.404Z,100848.75
2022-12-19T22:17:28.322Z,100834.81
2022-12-19T22:19:56.211Z,100836.59
2022-12-19T22:22:24.109Z,100835.63
2022-12-19T22:24:53.299Z,100835.72
2022-12-19T22:27:21.229Z,100834.03
2022-12-19T22:29:49.218Z,100828.84
2022-12-19T22:32:17.782Z,100815.91
2022-12-19T22:34:48.919Z,100815.09
2022-12-19T22:37:17.011Z,100811.63
2022-12-19T22:39:44.835Z,100794.84
2022-12-19T22:42:14.138Z,100794.75
2022-12-19T22:44:42.089Z,100807.16
2022-12-19T22:47:10.742Z,100808.94
2022-12-19T22:49:38.759Z,100801.19
2022-12-19T22:52:06.958Z,100794.31
2022-12-19T22:54:34.759Z,100770.75
2022-12-19T22:57:02.700Z,100777.09
2022-12-19T22:59:32.031Z,100778.06
2022-12-19T23:02:00.181Z,100766.47
2022-12-19T23:04:28.363Z,100769.41
2022-12-19T23:06:56.311Z,100766.91
2022-12-19T23:09:24.156Z,100758.34
2022-12-19T23:11:52.093Z,100758.44
2022-12-19T23:14:21.284Z,100753.25
2022-12-19T23:16:50.818Z,100728.53
2022-12-19T23:19:19.666Z,100707.22
2022-12-19T23:21:49.870Z,100703.81
2022-12-19T23:24:17.807Z,100741.13
2022-12-19T23:26:46.023Z,100744.41
2022-12-19T23:29:15.861Z,100739.16
2022-12-19T23:31:45.545Z,100679.66
2022-12-19T23:34:15.405Z,100732.28
2022-12-19T23:37:10.165Z,100730.59
2022-12-19T23:39:31.410Z,100729.00
2022-12-19T23:41:59.355Z,100680.19
2022-12-19T23:44:27.488Z,100713.09
2022-12-19T23:47:02.667Z,100722.81
2022-12-19T23:49:33.517Z,100696.50
2022-12-19T23:52:01.748Z,100710.97
2022-12-19T23:54:29.607Z,100681.59
2022-12-19T23:56:57.452Z,100704.97
2022-12-19T23:59:25.512Z,100689.44
